KMHV/MHV METAR and TAF weather

Enter ICAO airport designator
Station Type Date Time Source
KMHV METAR 2019/08/25 03:20 UTC NOAA

KMHV 250320Z AUTO 22011KT 10SM FEW033 29/08 A3001 RMK A01


Station Type Date Time Source
KMHV Decoded METAR 2019/08/25 03:20 UTC NOAA

Station name not available
Aug 24, 2019 - 11:20 PM EDT / 2019.08.25 0320 UTC
Wind: from the SW (220 degrees) at 13 MPH (11 KT):0
Visibility: 10 mile(s):0
Sky conditions: mostly clear
Temperature: 84 F (29 C)
Dew Point: 46 F (8 C)
Relative Humidity: 26%
Pressure (altimeter): 30.01 in. Hg (1016 hPa)
ob: KMHV 250320Z AUTO 22011KT 10SM FEW033 29/08 A3001 RMK A01
cycle: 3

Station Type Date Time Source
KMHV TAF UTC NOAA

Error!

Example: see airport list